createdAt,value
2024-04-24T00:00:42.135Z,10.20
2024-04-24T00:03:10.901Z,10.20
2024-04-24T00:05:39.632Z,10.20
2024-04-24T00:08:08.262Z,10.20
2024-04-24T00:10:36.931Z,10.20
2024-04-24T00:13:05.648Z,10.20
2024-04-24T00:15:35.806Z,9.90
2024-04-24T00:18:04.751Z,10.20
2024-04-24T00:20:33.387Z,10.20
2024-04-24T00:23:03.346Z,10.10
2024-04-24T00:25:32.330Z,10.20
2024-04-24T00:28:00.951Z,10.10
2024-04-24T00:30:29.643Z,10.10
2024-04-24T00:32:58.427Z,10.10
2024-04-24T00:35:27.198Z,10.10
2024-04-24T00:37:55.892Z,10.10
2024-04-24T00:40:26.068Z,10.10
2024-04-24T00:42:54.719Z,10.00
2024-04-24T00:45:23.322Z,9.90
2024-04-24T00:47:53.168Z,9.90
2024-04-24T00:50:23.706Z,9.80
2024-04-24T00:52:52.561Z,9.80
2024-04-24T00:55:21.379Z,9.70
2024-04-24T00:57:50.739Z,9.70
2024-04-24T01:00:20.189Z,9.70
2024-04-24T01:02:50.644Z,9.60
2024-04-24T01:05:20.111Z,9.60
2024-04-24T01:07:48.847Z,9.50
2024-04-24T01:10:19.203Z,9.50
2024-04-24T01:12:49.571Z,9.50
2024-04-24T01:15:19.267Z,9.40
2024-04-24T01:17:52.572Z,9.40
2024-04-24T01:20:27.498Z,9.30
2024-04-24T01:23:21.147Z,9.30
2024-04-24T01:26:12.188Z,9.40
2024-04-24T01:28:41.163Z,9.40
2024-04-24T01:31:09.777Z,9.40
2024-04-24T01:33:38.451Z,9.40
2024-04-24T01:36:07.392Z,9.40
2024-04-24T01:38:35.999Z,9.40
2024-04-24T01:41:04.775Z,9.40
2024-04-24T01:43:36.506Z,9.40
2024-04-24T01:46:07.917Z,9.40
2024-04-24T01:48:37.588Z,9.30
2024-04-24T01:51:06.467Z,9.30
2024-04-24T01:53:35.138Z,9.40
2024-04-24T01:56:04.020Z,9.40
2024-04-24T01:58:33.690Z,9.30
2024-04-24T02:01:03.439Z,9.40
2024-04-24T02:03:32.033Z,9.40
2024-04-24T02:06:01.489Z,9.40
2024-04-24T02:08:30.200Z,9.40
2024-04-24T02:10:58.868Z,9.30
2024-04-24T02:13:28.511Z,9.30
2024-04-24T02:15:57.156Z,9.40
2024-04-24T02:18:27.379Z,9.30
2024-04-24T02:20:56.214Z,9.30
2024-04-24T02:23:26.496Z,9.30
2024-04-24T02:25:55.138Z,9.20
2024-04-24T02:28:23.760Z,9.20
2024-04-24T02:30:52.391Z,9.30
2024-04-24T02:33:21.128Z,9.20
2024-04-24T02:35:49.802Z,9.20
2024-04-24T02:38:18.549Z,9.20
2024-04-24T02:40:47.386Z,9.20
2024-04-24T02:43:16.101Z,9.20
2024-04-24T02:45:46.931Z,9.20
2024-04-24T02:48:15.678Z,9.10
2024-04-24T02:50:44.392Z,9.10
2024-04-24T02:53:13.039Z,9.00
2024-04-24T02:55:41.716Z,9.10
2024-04-24T02:58:10.875Z,9.10
2024-04-24T03:00:39.535Z,9.40
2024-04-24T03:03:08.315Z,9.10
2024-04-24T03:05:37.033Z,9.10
2024-04-24T03:08:05.932Z,9.00
2024-04-24T03:10:34.503Z,9.00
2024-04-24T03:13:03.123Z,9.10
2024-04-24T03:15:31.746Z,9.10
2024-04-24T03:18:00.559Z,9.10
2024-04-24T03:20:29.223Z,9.10
2024-04-24T03:22:57.859Z,9.00
2024-04-24T03:25:26.433Z,9.00
2024-04-24T03:27:56.584Z,9.00
2024-04-24T03:30:25.208Z,9.00
2024-04-24T03:32:53.995Z,9.00
2024-04-24T03:35:22.934Z,9.00
2024-04-24T03:37:51.585Z,9.00
2024-04-24T03:40:20.195Z,8.90
2024-04-24T03:42:48.965Z,9.00
2024-04-24T03:45:17.634Z,9.00
2024-04-24T03:47:46.546Z,8.90
2024-04-24T03:50:15.379Z,9.00
2024-04-24T03:52:44.006Z,9.00
2024-04-24T03:55:12.685Z,8.90
2024-04-24T03:57:41.310Z,8.90
2024-04-24T04:00:10.450Z,8.90
2024-04-24T04:02:39.266Z,8.90
2024-04-24T04:05:08.107Z,8.80
2024-04-24T04:07:36.802Z,8.90
2024-04-24T04:10:05.652Z,8.90
2024-04-24T04:12:35.442Z,8.80
2024-04-24T04:15:04.131Z,8.80
2024-04-24T04:17:33.415Z,8.80
2024-04-24T04:20:02.146Z,8.80
2024-04-24T04:22:31.044Z,8.70
2024-04-24T04:24:59.946Z,8.80
2024-04-24T04:27:30.356Z,8.80
2024-04-24T04:30:01.991Z,8.70
2024-04-24T04:32:30.674Z,8.80
2024-04-24T04:34:59.414Z,8.80
2024-04-24T04:37:28.013Z,8.70
2024-04-24T04:39:56.943Z,8.80
2024-04-24T04:42:25.576Z,8.80
2024-04-24T04:44:58.739Z,8.70
2024-04-24T04:47:27.603Z,8.80
2024-04-24T04:49:56.460Z,8.70
2024-04-24T04:52:26.145Z,8.80
2024-04-24T04:54:54.763Z,8.80
2024-04-24T04:57:23.397Z,8.70
2024-04-24T04:59:52.064Z,8.70
2024-04-24T05:02:21.928Z,8.70
2024-04-24T05:04:50.549Z,8.70
2024-04-24T05:07:19.127Z,8.70
2024-04-24T05:09:47.907Z,8.80
2024-04-24T05:12:17.404Z,8.70
2024-04-24T05:14:47.733Z,8.80
2024-04-24T05:17:16.451Z,8.80
2024-04-24T05:19:45.152Z,8.80
2024-04-24T05:22:34.774Z,8.90
2024-04-24T05:25:05.669Z,9.00
2024-04-24T05:28:11.308Z,9.20
2024-04-24T05:30:59.361Z,9.30
2024-04-24T05:33:28.074Z,9.60
2024-04-24T05:35:56.704Z,9.70
2024-04-24T05:38:25.362Z,9.70
2024-04-24T05:40:54.087Z,9.70
2024-04-24T05:43:22.666Z,9.60
2024-04-24T05:45:51.843Z,9.60
2024-04-24T05:48:20.566Z,10.00
2024-04-24T05:50:49.581Z,9.60
2024-04-24T05:53:37.535Z,9.60
2024-04-24T05:56:26.585Z,9.50
2024-04-24T05:58:55.357Z,9.60
2024-04-24T06:01:24.014Z,9.60
2024-04-24T06:03:53.054Z,9.60
2024-04-24T06:06:21.694Z,9.60
2024-04-24T06:08:51.580Z,9.60
2024-04-24T06:11:39.615Z,9.60
2024-04-24T06:14:08.341Z,9.70
2024-04-24T06:16:37.139Z,9.70
2024-04-24T06:19:06.900Z,9.80
2024-04-24T06:21:54.914Z,9.80
2024-04-24T06:24:42.925Z,9.90
2024-04-24T06:27:11.553Z,10.00
2024-04-24T06:29:41.505Z,10.20
2024-04-24T06:32:10.221Z,10.20
2024-04-24T06:34:38.966Z,10.30
2024-04-24T06:37:07.635Z,10.20
2024-04-24T06:39:36.288Z,10.50
2024-04-24T06:42:05.086Z,10.70
2024-04-24T06:44:33.811Z,10.90
2024-04-24T06:47:22.452Z,10.90
2024-04-24T06:50:10.547Z,10.90
2024-04-24T06:52:58.556Z,10.80
2024-04-24T06:55:27.167Z,10.70
2024-04-24T06:57:58.551Z,10.70
2024-04-24T07:00:45.570Z,10.70
2024-04-24T07:03:14.508Z,10.90
2024-04-24T07:06:02.547Z,10.90
2024-04-24T07:08:50.553Z,11.00
2024-04-24T07:11:39.440Z,10.90
2024-04-24T07:14:28.020Z,11.00
2024-04-24T07:16:58.242Z,10.80
2024-04-24T07:19:46.235Z,10.70
2024-04-24T07:22:34.213Z,10.70
2024-04-24T07:25:22.390Z,10.70
2024-04-24T07:27:52.982Z,10.80
2024-04-24T07:33:25.000Z,11.10
2024-04-24T07:36:07.802Z,11.30
2024-04-24T07:38:34.205Z,11.30
2024-04-24T07:41:22.351Z,11.50
2024-04-24T07:44:11.378Z,11.70
2024-04-24T07:47:02.397Z,12.10
2024-04-24T07:49:49.353Z,12.20
2024-04-24T07:52:37.326Z,12.10
2024-04-24T07:55:06.311Z,12.20
2024-04-24T07:57:34.957Z,12.30
2024-04-24T08:00:23.493Z,12.40
2024-04-24T08:03:11.511Z,12.50
2024-04-24T08:05:40.556Z,12.60
2024-04-24T08:08:28.709Z,12.80
2024-04-24T08:11:16.893Z,12.70
2024-04-24T08:14:06.558Z,12.80
2024-04-24T08:16:54.785Z,12.80
2024-04-24T08:22:14.987Z,13.20
2024-04-24T08:24:43.813Z,13.70
2024-04-24T08:27:33.093Z,13.90
2024-04-24T08:30:01.740Z,13.90
2024-04-24T08:32:30.420Z,13.60
2024-04-24T08:34:59.079Z,13.30
2024-04-24T08:37:27.797Z,13.00
2024-04-24T08:39:56.414Z,12.50
2024-04-24T08:42:44.367Z,12.20
2024-04-24T08:45:16.076Z,11.90
2024-04-24T08:47:45.533Z,11.60
2024-04-24T08:50:34.161Z,11.50
2024-04-24T08:53:05.610Z,11.40
2024-04-24T08:55:56.733Z,11.30
2024-04-24T08:58:46.229Z,11.40
2024-04-24T09:01:35.856Z,11.40
2024-04-24T09:04:24.629Z,11.50
2024-04-24T09:07:13.566Z,11.90
2024-04-24T09:10:02.379Z,12.60
2024-04-24T09:12:50.894Z,13.20
2024-04-24T09:15:40.353Z,13.70
2024-04-24T09:18:28.537Z,13.90
2024-04-24T09:21:17.523Z,13.80
2024-04-24T09:23:46.154Z,13.40
2024-04-24T09:26:15.028Z,13.10
2024-04-24T09:29:03.539Z,12.80
2024-04-24T09:31:51.703Z,12.60
2024-04-24T09:34:42.953Z,12.40
2024-04-24T09:37:12.717Z,12.10
2024-04-24T09:40:00.714Z,11.90
2024-04-24T09:42:30.952Z,11.80
2024-04-24T09:45:20.664Z,11.70
2024-04-24T09:48:09.050Z,11.70
2024-04-24T09:50:42.199Z,11.70
2024-04-24T09:53:30.150Z,11.80
2024-04-24T09:56:01.545Z,12.00
2024-04-24T09:58:51.070Z,12.20
2024-04-24T10:01:39.409Z,12.40
2024-04-24T10:04:27.947Z,12.60
2024-04-24T10:06:59.833Z,12.80
2024-04-24T10:09:49.255Z,13.00
2024-04-24T10:12:40.899Z,13.00
2024-04-24T10:15:30.144Z,13.10
2024-04-24T10:17:59.844Z,13.20
2024-04-24T10:20:29.349Z,13.10
2024-04-24T10:23:17.495Z,13.20
2024-04-24T10:26:06.341Z,13.30
2024-04-24T10:28:54.895Z,13.40
2024-04-24T10:31:44.784Z,13.40
2024-04-24T10:34:33.449Z,13.40
2024-04-24T10:37:21.555Z,13.30
2024-04-24T10:40:16.362Z,13.20
2024-04-24T10:43:07.086Z,13.20
2024-04-24T10:45:42.449Z,13.20
2024-04-24T10:48:43.243Z,13.30
2024-04-24T10:51:35.840Z,13.30
2024-04-24T10:54:30.005Z,13.30
2024-04-24T10:57:18.097Z,13.20
2024-04-24T11:00:19.140Z,13.10
2024-04-24T11:03:07.831Z,13.10
2024-04-24T11:05:57.191Z,13.10
2024-04-24T11:08:45.274Z,13.10
2024-04-24T11:11:14.350Z,13.00
2024-04-24T11:14:02.865Z,12.90
2024-04-24T11:17:01.492Z,12.70
2024-04-24T11:19:27.926Z,12.40
2024-04-24T11:22:15.949Z,12.10
2024-04-24T11:25:13.170Z,12.00
2024-04-24T11:27:42.209Z,11.90
2024-04-24T11:30:19.649Z,11.90
2024-04-24T11:32:51.379Z,11.90
2024-04-24T11:35:22.771Z,12.20
2024-04-24T11:37:53.008Z,12.50
2024-04-24T11:40:42.970Z,12.70
2024-04-24T11:43:31.428Z,12.90
2024-04-24T11:46:22.323Z,13.30
2024-04-24T11:48:53.721Z,13.80
2024-04-24T11:51:41.781Z,14.70
2024-04-24T11:54:11.050Z,15.50
2024-04-24T11:56:43.058Z,16.30
2024-04-24T11:59:12.191Z,17.10
2024-04-24T12:01:41.647Z,17.70
2024-04-24T12:04:10.523Z,18.20
2024-04-24T12:06:41.316Z,18.50
2024-04-24T12:09:29.274Z,18.90
2024-04-24T12:11:58.115Z,19.10
2024-04-24T12:14:47.674Z,19.40
2024-04-24T12:17:35.690Z,19.60
2024-04-24T12:20:06.933Z,19.70
2024-04-24T12:22:54.222Z,19.40
2024-04-24T12:25:42.270Z,19.10
2024-04-24T12:28:10.868Z,18.60
2024-04-24T12:31:00.374Z,18.00
2024-04-24T12:33:48.689Z,17.40
2024-04-24T12:36:17.834Z,16.90
2024-04-24T12:38:46.598Z,16.40
2024-04-24T12:41:37.590Z,16.20
2024-04-24T12:44:25.748Z,16.00
2024-04-24T12:47:13.973Z,16.10
2024-04-24T12:49:47.605Z,16.40
2024-04-24T12:52:38.149Z,16.50
2024-04-24T13:01:04.528Z,16.90
2024-04-24T13:03:33.558Z,17.00
2024-04-24T13:06:03.980Z,16.90
2024-04-24T13:11:55.547Z,16.60
2024-04-24T13:14:43.684Z,16.30
2024-04-24T13:23:30.124Z,15.40
2024-04-24T13:25:58.870Z,15.20
2024-04-24T13:28:28.620Z,15.00
2024-04-24T13:31:16.867Z,14.70
2024-04-24T13:34:06.552Z,14.40
2024-04-24T13:36:54.755Z,14.00
2024-04-24T13:39:42.744Z,13.70
2024-04-24T13:42:30.705Z,13.50
2024-04-24T13:45:18.780Z,13.20
2024-04-24T13:48:08.852Z,12.90
2024-04-24T13:50:38.935Z,12.70
2024-04-24T13:53:26.964Z,12.40
2024-04-24T13:56:14.982Z,12.50
2024-04-24T13:59:02.972Z,12.70
2024-04-24T14:01:51.164Z,13.10
2024-04-24T14:04:39.285Z,13.50
2024-04-24T14:07:27.306Z,14.20
2024-04-24T14:10:15.360Z,14.60
2024-04-24T14:13:03.446Z,15.00
2024-04-24T14:15:51.451Z,15.50
2024-04-24T14:18:39.449Z,15.90
2024-04-24T14:21:31.023Z,16.10
2024-04-24T14:24:19.481Z,16.30
2024-04-24T14:27:07.572Z,16.30
2024-04-24T14:29:58.857Z,16.30
2024-04-24T14:32:47.000Z,16.10
2024-04-24T14:35:35.207Z,16.10
2024-04-24T14:38:25.009Z,16.20
2024-04-24T14:41:13.519Z,16.30
2024-04-24T14:43:42.481Z,16.30
2024-04-24T14:46:30.482Z,16.30
2024-04-24T14:49:02.524Z,16.30
2024-04-24T14:51:29.376Z,16.40
2024-04-24T14:53:59.687Z,16.40
2024-04-24T14:56:47.774Z,16.30
2024-04-24T14:59:37.457Z,16.30
2024-04-24T15:02:27.821Z,16.00
2024-04-24T15:05:18.622Z,15.80
2024-04-24T15:08:06.682Z,15.70
2024-04-24T15:10:54.649Z,15.50
2024-04-24T15:13:43.587Z,15.40
2024-04-24T15:16:12.403Z,15.30
2024-04-24T15:19:03.144Z,15.20
2024-04-24T15:21:34.502Z,15.20
2024-04-24T15:24:22.493Z,15.10
2024-04-24T15:26:51.187Z,15.30
2024-04-24T15:29:39.234Z,15.10
2024-04-24T15:32:28.215Z,15.20
2024-04-24T15:35:16.315Z,15.50
2024-04-24T15:38:04.706Z,15.70
2024-04-24T15:40:52.695Z,15.90
2024-04-24T15:43:40.708Z,15.80
2024-04-24T15:46:28.833Z,15.70
2024-04-24T15:49:16.794Z,15.60
2024-04-24T15:51:47.033Z,15.50
2024-04-24T15:54:18.883Z,15.60
2024-04-24T15:57:10.269Z,15.60
2024-04-24T15:59:40.328Z,15.70
2024-04-24T16:02:09.222Z,15.70
2024-04-24T16:04:57.141Z,15.70
2024-04-24T16:07:45.114Z,15.70
2024-04-24T16:10:13.733Z,15.50
2024-04-24T16:13:02.490Z,15.30
2024-04-24T16:18:33.034Z,14.80
2024-04-24T16:21:16.405Z,14.30
2024-04-24T16:24:04.495Z,13.90
2024-04-24T16:26:33.152Z,13.50
2024-04-24T16:29:21.243Z,13.00
2024-04-24T16:32:09.358Z,12.70
2024-04-24T16:34:57.421Z,12.60
2024-04-24T16:37:26.142Z,12.60
2024-04-24T16:40:14.194Z,12.30
2024-04-24T16:43:02.244Z,12.30
2024-04-24T16:56:33.898Z,13.20
2024-04-24T16:59:22.449Z,13.20
2024-04-24T17:02:10.659Z,12.90
2024-04-24T17:04:59.193Z,13.20
2024-04-24T17:07:48.548Z,13.20
2024-04-24T17:10:17.599Z,13.20
2024-04-24T17:13:07.316Z,13.10
2024-04-24T17:15:56.965Z,13.10
2024-04-24T17:18:45.125Z,13.00
2024-04-24T17:21:13.860Z,13.10
2024-04-24T17:24:02.797Z,13.00
2024-04-24T17:26:51.001Z,13.00
2024-04-24T17:29:21.247Z,13.00
2024-04-24T17:31:53.131Z,12.80
2024-04-24T17:40:28.541Z,12.60
2024-04-24T17:43:17.991Z,12.50
2024-04-24T17:45:47.064Z,12.60
2024-04-24T17:48:16.896Z,12.40
2024-04-24T17:50:49.651Z,12.30
2024-04-24T17:53:20.096Z,12.30
2024-04-24T17:55:51.493Z,12.30
2024-04-24T18:10:06.908Z,12.00
2024-04-24T18:12:35.625Z,11.90
2024-04-24T18:15:07.447Z,11.70
2024-04-24T18:17:56.221Z,11.70
2024-04-24T18:20:33.363Z,11.70
2024-04-24T18:23:23.753Z,11.60
2024-04-24T18:25:53.265Z,11.60
2024-04-24T18:28:22.781Z,11.50
2024-04-24T18:31:14.168Z,11.50
2024-04-24T18:34:03.477Z,11.40
2024-04-24T18:36:57.833Z,11.40
2024-04-24T18:39:26.329Z,11.30
2024-04-24T18:42:14.538Z,11.30
2024-04-24T18:44:44.084Z,11.30
2024-04-24T18:47:33.914Z,11.20
2024-04-24T18:50:04.024Z,11.10
2024-04-24T18:52:53.646Z,11.10
2024-04-24T18:55:25.983Z,11.10
2024-04-24T18:57:54.639Z,11.10
2024-04-24T19:00:42.663Z,11.00
2024-04-24T19:03:30.710Z,11.00
2024-04-24T19:06:00.759Z,11.00
2024-04-24T19:08:50.289Z,10.90
2024-04-24T19:11:18.988Z,10.90
2024-04-24T19:14:07.107Z,10.90
2024-04-24T19:16:56.355Z,10.80
2024-04-24T19:19:26.646Z,10.80
2024-04-24T19:21:55.559Z,10.80
2024-04-24T19:24:24.574Z,10.80
2024-04-24T19:27:14.764Z,10.70
2024-04-24T19:30:03.811Z,10.80
2024-04-24T19:32:51.924Z,10.70
2024-04-24T19:35:21.683Z,10.80
2024-04-24T19:37:53.757Z,10.70
2024-04-24T19:40:41.716Z,10.70
2024-04-24T19:43:31.200Z,10.70
2024-04-24T19:46:19.277Z,10.70
2024-04-24T19:49:07.307Z,10.70
2024-04-24T19:51:55.302Z,10.60
2024-04-24T19:54:23.931Z,10.60
2024-04-24T19:57:14.864Z,10.60
2024-04-24T19:59:44.459Z,10.60
2024-04-24T20:02:17.863Z,10.50
2024-04-24T20:05:06.988Z,10.50
2024-04-24T20:07:36.523Z,10.40
2024-04-24T20:10:25.534Z,10.50
2024-04-24T20:13:13.613Z,10.50
2024-04-24T20:16:07.981Z,10.40
2024-04-24T20:18:56.004Z,10.40
2024-04-24T20:21:24.653Z,10.40
2024-04-24T20:23:53.323Z,10.30
2024-04-24T20:26:22.198Z,10.10
2024-04-24T20:28:52.890Z,10.10
2024-04-24T20:31:41.067Z,10.20
2024-04-24T20:34:29.181Z,10.10
2024-04-24T20:37:00.755Z,10.00
2024-04-24T20:39:50.607Z,10.00
2024-04-24T20:42:41.216Z,10.00
2024-04-24T20:45:11.742Z,10.00
2024-04-24T20:48:02.085Z,9.90
2024-04-24T20:50:50.276Z,9.90
2024-04-24T20:53:41.532Z,9.90
2024-04-24T20:56:29.569Z,9.90
2024-04-24T20:58:58.225Z,9.90
2024-04-24T21:01:46.715Z,9.80
2024-04-24T21:04:36.343Z,9.90
2024-04-24T21:07:07.176Z,9.80
2024-04-24T21:09:37.407Z,9.80
2024-04-24T21:12:27.731Z,9.90
2024-04-24T21:15:15.831Z,9.80
2024-04-24T21:17:45.622Z,9.80
2024-04-24T21:20:33.645Z,9.80
2024-04-24T21:23:03.927Z,9.80
2024-04-24T21:25:52.142Z,9.80
2024-04-24T21:28:21.721Z,9.70
2024-04-24T21:31:09.684Z,9.70
2024-04-24T21:33:59.205Z,9.70
2024-04-24T21:39:10.112Z,9.50
2024-04-24T21:41:38.941Z,9.50
2024-04-24T21:44:07.589Z,9.50
2024-04-24T21:46:36.282Z,9.50
2024-04-24T21:49:04.982Z,9.50
2024-04-24T21:51:35.340Z,9.50
2024-04-24T21:54:04.313Z,9.40
2024-04-24T21:56:34.494Z,9.30
2024-04-24T21:59:03.210Z,9.30
2024-04-24T22:01:33.129Z,9.40
2024-04-24T22:04:08.644Z,9.30
2024-04-24T22:06:39.087Z,9.30
2024-04-24T22:09:07.776Z,9.20
2024-04-24T22:11:37.810Z,9.30
2024-04-24T22:14:06.493Z,9.30
2024-04-24T22:16:36.529Z,9.20
2024-04-24T22:19:06.730Z,9.20
2024-04-24T22:21:35.471Z,9.30
2024-04-24T22:24:04.277Z,9.20
2024-04-24T22:26:34.576Z,9.20
2024-04-24T22:29:04.595Z,9.10
2024-04-24T22:31:35.117Z,9.10
2024-04-24T22:34:03.714Z,9.00
2024-04-24T22:36:32.529Z,9.10
2024-04-24T22:39:01.162Z,9.10
2024-04-24T22:41:29.826Z,8.90
2024-04-24T22:44:00.686Z,9.10
2024-04-24T22:46:29.295Z,8.90
2024-04-24T22:48:59.100Z,9.00
2024-04-24T22:51:28.691Z,9.00
2024-04-24T22:53:58.951Z,9.00
2024-04-24T22:56:28.146Z,8.80
2024-04-24T22:58:59.444Z,9.20
2024-04-24T23:01:28.216Z,9.10
2024-04-24T23:03:57.188Z,9.10
2024-04-24T23:06:25.865Z,9.10
2024-04-24T23:08:56.015Z,9.20
2024-04-24T23:11:27.084Z,9.30
2024-04-24T23:13:56.065Z,9.10
2024-04-24T23:16:24.674Z,9.20
2024-04-24T23:18:53.361Z,9.20
2024-04-24T23:21:21.990Z,9.20
2024-04-24T23:23:50.605Z,9.20
2024-04-24T23:26:20.748Z,9.30
2024-04-24T23:28:49.457Z,9.20
2024-04-24T23:31:19.657Z,9.30
2024-04-24T23:33:48.414Z,9.20
2024-04-24T23:36:18.059Z,9.40
2024-04-24T23:38:46.647Z,9.30
2024-04-24T23:41:17.049Z,9.40
2024-04-24T23:43:48.252Z,9.30
2024-04-24T23:46:18.785Z,9.30
2024-04-24T23:48:49.230Z,9.30
2024-04-24T23:51:18.189Z,9.40
2024-04-24T23:53:48.691Z,9.20
2024-04-24T23:56:18.202Z,9.20
2024-04-24T23:58:46.865Z,9.20
